ZKTAE NZAR-NZAR

Flight info

Callsign ZKTAE
Flight time 0h 36m
Altitude 1500
Route VFR
Aircraft C152/L-VGDW/C

Departure

Time 2026-04-26 03:31
Airport Ardmore Airport (NZAR)

Arrival

Time 2026-04-26 04:07
Airport Ardmore Airport (NZAR)
Time Latitude Longitude Altitude Speed Heading
2026-04-26 03:26 -37.03089 174.97794 109 ft 0 kts 319°
2026-04-26 03:27 -37.03088 174.97790 109 ft 0 kts 278°
2026-04-26 03:27 -37.03100 174.97789 109 ft 5 kts 165°
2026-04-26 03:28 -37.03144 174.97771 109 ft 8 kts 234°
2026-04-26 03:28 -37.03135 174.97745 109 ft 7 kts 348°
2026-04-26 03:28 -37.03097 174.97720 109 ft 0 kts 321°
2026-04-26 03:28 -37.03072 174.97690 109 ft 8 kts 314°
2026-04-26 03:29 -37.03029 174.97639 109 ft 6 kts 326°
2026-04-26 03:29 -37.02974 174.97691 109 ft 14 kts 44°
2026-04-26 03:29 -37.02895 174.97794 109 ft 16 kts 52°
2026-04-26 03:29 -37.02823 174.97868 109 ft 11 kts 326°
2026-04-26 03:30 -37.02839 174.97761 109 ft 20 kts 225°
2026-04-26 03:30 -37.03089 174.97452 159 ft 69 kts 222°
2026-04-26 03:30 -37.03453 174.96989 389 ft 74 kts 220°
2026-04-26 03:30 -37.03914 174.96922 657 ft 78 kts 165°
2026-04-26 03:31 -37.04485 174.97144 784 ft 91 kts 164°
2026-04-26 03:31 -37.05092 174.97404 972 ft 91 kts 163°
2026-04-26 03:31 -37.05632 174.97681 1261 ft 81 kts 166°
2026-04-26 03:31 -37.06202 174.97871 1445 ft 87 kts 169°
2026-04-26 03:32 -37.06809 174.98074 1570 ft 94 kts 168°
2026-04-26 03:32 -37.07465 174.98309 1634 ft 100 kts 166°
2026-04-26 03:32 -37.08146 174.98575 1691 ft 103 kts 165°
2026-04-26 03:32 -37.08834 174.98846 1750 ft 105 kts 166°
2026-04-26 03:33 -37.09533 174.99182 1798 ft 106 kts 157°
2026-04-26 03:33 -37.10169 174.99686 1824 ft 111 kts 144°
2026-04-26 03:33 -37.10741 175.00349 1836 ft 112 kts 137°
2026-04-26 03:33 -37.11287 175.01059 1834 ft 114 kts 137°
2026-04-26 03:34 -37.11842 175.01796 1806 ft 115 kts 136°
2026-04-26 03:34 -37.12387 175.02516 1860 ft 110 kts 135°
2026-04-26 03:34 -37.12838 175.03271 1966 ft 108 kts 124°
2026-04-26 03:34 -37.13241 175.04094 1981 ft 113 kts 124°
2026-04-26 03:35 -37.13666 175.04961 1915 ft 119 kts 124°
2026-04-26 03:35 -37.14091 175.05850 1913 ft 117 kts 124°
2026-04-26 03:35 -37.14558 175.06683 1896 ft 117 kts 132°
2026-04-26 03:35 -37.15107 175.07419 1863 ft 117 kts 139°
2026-04-26 03:36 -37.15684 175.08151 1838 ft 117 kts 137°
2026-04-26 03:36 -37.16242 175.08890 1816 ft 117 kts 134°
2026-04-26 03:36 -37.16771 175.09654 1831 ft 115 kts 132°
2026-04-26 03:36 -37.17140 175.10539 1878 ft 116 kts 112°
2026-04-26 03:37 -37.17358 175.11508 1922 ft 116 kts 104°
2026-04-26 03:37 -37.17545 175.12524 1877 ft 121 kts 107°
2026-04-26 03:37 -37.17807 175.13556 1785 ft 124 kts 110°
2026-04-26 03:37 -37.18116 175.14558 1738 ft 122 kts 120°
2026-04-26 03:38 -37.18661 175.15305 1802 ft 112 kts 152°
2026-04-26 03:38 -37.19384 175.15591 1803 ft 110 kts 176°
2026-04-26 03:38 -37.20164 175.15717 1716 ft 115 kts 176°
2026-04-26 03:38 -37.20963 175.15865 1657 ft 115 kts 173°
2026-04-26 03:39 -37.21756 175.15938 1628 ft 110 kts 189°
2026-04-26 03:39 -37.22498 175.15712 1583 ft 111 kts 199°
2026-04-26 03:39 -37.23065 175.15144 1638 ft 102 kts 243°
2026-04-26 03:39 -37.23021 175.14290 1704 ft 102 kts 282°
2026-04-26 03:40 -37.22806 175.13419 1721 ft 104 kts 284°
2026-04-26 03:40 -37.23123 175.12819 1849 ft 99 kts 175°
2026-04-26 03:40 -37.23609 175.13347 2072 ft 99 kts 118°
2026-04-26 03:40 -37.23660 175.14200 2234 ft 103 kts 61°
2026-04-26 03:41 -37.23039 175.14412 2216 ft 104 kts 309°
2026-04-26 03:41 -37.22812 175.13600 2276 ft 101 kts 280°
2026-04-26 03:41 -37.22632 175.12712 2232 ft 107 kts 279°
2026-04-26 03:41 -37.22448 175.11801 2181 ft 109 kts 279°
2026-04-26 03:42 -37.22276 175.10860 2114 ft 110 kts 278°
2026-04-26 03:42 -37.22092 175.09929 2083 ft 108 kts 279°
2026-04-26 03:42 -37.21767 175.09088 2076 ft 111 kts 308°
2026-04-26 03:42 -37.21037 175.08975 2108 ft 120 kts 34°
2026-04-26 03:43 -37.20956 175.09912 2070 ft 117 kts 130°
2026-04-26 03:43 -37.21649 175.10078 2066 ft 104 kts 215°
2026-04-26 03:43 -37.21813 175.09238 2039 ft 108 kts 276°
2026-04-26 03:43 -37.21625 175.08366 2196 ft 96 kts 279°
2026-04-26 03:44 -37.21454 175.07577 2323 ft 96 kts 280°
2026-04-26 03:44 -37.21297 175.06770 2454 ft 94 kts 275°
2026-04-26 03:44 -37.21208 175.05977 2646 ft 86 kts 262°
2026-04-26 03:44 -37.21572 175.05470 2845 ft 83 kts 202°
2026-04-26 03:45 -37.21715 175.05423 2801 ft 97 kts 320°
2026-04-26 03:45 -37.21263 175.04933 3162 ft 63 kts 287°
2026-04-26 03:45 -37.21433 175.05035 3072 ft 93 kts 149°
2026-04-26 03:45 -37.21885 175.05640 3280 ft 90 kts 121°
2026-04-26 03:46 -37.22147 175.06345 3477 ft 92 kts 117°
2026-04-26 03:46 -37.22386 175.07085 3644 ft 95 kts 114°
2026-04-26 03:46 -37.22596 175.07877 3802 ft 98 kts 110°
2026-04-26 03:47 -37.23235 175.09840 3384 ft 122 kts 123°
2026-04-26 03:47 -37.23648 175.10761 3301 ft 122 kts 121°
2026-04-26 03:47 -37.24079 175.11653 3238 ft 117 kts 137°
2026-04-26 03:47 -37.24683 175.12363 3120 ft 119 kts 142°
2026-04-26 03:48 -37.25332 175.12968 3071 ft 116 kts 148°
2026-04-26 03:48 -37.26063 175.13298 3011 ft 111 kts 184°
2026-04-26 03:48 -37.26802 175.12970 2717 ft 121 kts 211°
2026-04-26 03:48 -37.27445 175.12372 2706 ft 109 kts 219°
2026-04-26 03:49 -37.28149 175.12126 2584 ft 119 kts 162°
2026-04-26 03:49 -37.28663 175.13002 2248 ft 134 kts 121°
2026-04-26 03:49 -37.28973 175.13860 2048 ft 85 kts 118°
2026-04-26 03:49 -37.29008 175.14516 1804 ft 83 kts 68°
2026-04-26 03:50 -37.28657 175.15073 1521 ft 79 kts 37°
2026-04-26 03:50 -37.28228 175.15475 1267 ft 76 kts 34°
2026-04-26 03:50 -37.27781 175.15790 1026 ft 70 kts
2026-04-26 03:50 -37.27387 175.15523 798 ft 65 kts 311°
2026-04-26 03:51 -37.27121 175.15068 633 ft 64 kts 299°
2026-04-26 03:51 -37.26922 175.14577 486 ft 61 kts 293°
2026-04-26 03:51 -37.26757 175.14105 359 ft 58 kts 290°
2026-04-26 03:51 -37.26624 175.13650 247 ft 54 kts 289°
2026-04-26 03:52 -37.26479 175.13208 137 ft 54 kts 290°
2026-04-26 03:52 -37.26345 175.12791 65 ft 49 kts 290°
2026-04-26 03:52 -37.26231 175.12440 44 ft 36 kts 289°
2026-04-26 03:52 -37.26115 175.12073 143 ft 51 kts 287°
2026-04-26 03:53 -37.25980 175.11656 301 ft 57 kts 288°
2026-04-26 03:53 -37.25990 175.11142 433 ft 60 kts 226°
2026-04-26 03:53 -37.26344 175.10877 415 ft 55 kts 185°
2026-04-26 03:53 -37.26575 175.11194 441 ft 56 kts 114°
2026-04-26 03:54 -37.26751 175.11706 446 ft 69 kts 113°
2026-04-26 03:54 -37.26933 175.12251 472 ft 66 kts 114°
2026-04-26 03:54 -37.27101 175.12776 451 ft 63 kts 112°
2026-04-26 03:54 -37.27246 175.13278 436 ft 59 kts 109°
2026-04-26 03:55 -37.27087 175.13722 396 ft 61 kts 34°
2026-04-26 03:55 -37.26717 175.13750 320 ft 60 kts 308°
2026-04-26 03:55 -37.26514 175.13307 191 ft 56 kts 288°
2026-04-26 03:55 -37.26372 175.12871 96 ft 51 kts 291°
2026-04-26 03:56 -37.26246 175.12485 44 ft 42 kts 291°
2026-04-26 03:56 -37.26146 175.12180 59 ft 48 kts 287°
2026-04-26 03:56 -37.26016 175.11705 213 ft 69 kts 284°
2026-04-26 03:56 -37.25884 175.11096 434 ft 74 kts 282°
2026-04-26 03:57 -37.25740 175.10463 674 ft 74 kts 284°
2026-04-26 03:57 -37.25596 175.09825 861 ft 79 kts 281°
2026-04-26 03:57 -37.25380 175.09198 1094 ft 78 kts 302°
2026-04-26 03:57 -37.24956 175.08757 1306 ft 81 kts 322°
2026-04-26 03:58 -37.24443 175.08421 1471 ft 88 kts 329°
2026-04-26 03:58 -37.23811 175.08191 1602 ft 97 kts 343°
2026-04-26 03:58 -37.23112 175.08164 1705 ft 104 kts 356°
2026-04-26 03:58 -37.22370 175.08208 1791 ft 107 kts 357°
2026-04-26 03:59 -37.21613 175.08382 1837 ft 113 kts 12°
2026-04-26 03:59 -37.20865 175.08720 1873 ft 115 kts 19°
2026-04-26 03:59 -37.20142 175.09169 1900 ft 117 kts 25°
2026-04-26 03:59 -37.19398 175.09627 1877 ft 122 kts 20°
2026-04-26 04:00 -37.18605 175.10049 1794 ft 125 kts 19°
2026-04-26 04:00 -37.17803 175.10474 1729 ft 124 kts 19°
2026-04-26 04:00 -37.17010 175.10873 1685 ft 123 kts 17°
2026-04-26 04:00 -37.16195 175.11211 1640 ft 121 kts 11°
2026-04-26 04:01 -37.15373 175.11414 1607 ft 119 kts
2026-04-26 04:01 -37.14563 175.11493 1639 ft 114 kts 357°
2026-04-26 04:01 -37.13775 175.11417 1664 ft 112 kts 343°
2026-04-26 04:01 -37.13003 175.11156 1613 ft 116 kts 337°
2026-04-26 04:02 -37.12240 175.10817 1564 ft 117 kts 334°
2026-04-26 04:02 -37.11503 175.10434 1633 ft 107 kts 329°
2026-04-26 04:02 -37.10803 175.10016 1593 ft 114 kts 326°
2026-04-26 04:02 -37.10091 175.09505 1467 ft 120 kts 324°
2026-04-26 04:03 -37.09394 175.08972 1440 ft 115 kts 323°
2026-04-26 04:03 -37.08694 175.08444 1389 ft 115 kts 322°
2026-04-26 04:03 -37.08039 175.07890 1380 ft 112 kts 320°
2026-04-26 04:03 -37.07383 175.07402 1442 ft 109 kts 326°
2026-04-26 04:04 -37.06712 175.06935 1444 ft 111 kts 325°
2026-04-26 04:04 -37.06046 175.06424 1467 ft 111 kts 322°
2026-04-26 04:04 -37.05409 175.05893 1479 ft 111 kts 319°
2026-04-26 04:04 -37.04774 175.05321 1486 ft 111 kts 318°
2026-04-26 04:05 -37.04229 175.04658 1477 ft 110 kts 301°
2026-04-26 04:05 -37.03840 175.03822 1430 ft 110 kts 293°
2026-04-26 04:05 -37.03523 175.02979 1481 ft 104 kts 289°
2026-04-26 04:05 -37.03183 175.02164 1450 ft 104 kts 307°
2026-04-26 04:06 -37.02621 175.01643 1363 ft 92 kts 321°
2026-04-26 04:06 -37.02158 175.01137 1345 ft 93 kts 299°
2026-04-26 04:06 -37.01897 175.00444 1156 ft 81 kts 283°
2026-04-26 04:06 -37.01797 174.99756 898 ft 81 kts 270°
2026-04-26 04:07 -37.01889 174.99071 603 ft 84 kts 247°
2026-04-26 04:07 -37.02231 174.98537 297 ft 77 kts 228°
2026-04-26 04:07 -37.02571 174.98105 157 ft 63 kts 227°
2026-04-26 04:07 -37.02846 174.97755 112 ft 48 kts 227°
2026-04-26 04:08 -37.03030 174.97516 109 ft 24 kts 228°
2026-04-26 04:08 -37.03121 174.97404 109 ft 10 kts 199°
2026-04-26 04:08 -37.03167 174.97430 109 ft 6 kts 137°
2026-04-26 04:08 -37.03149 174.97467 109 ft 7 kts 43°
2026-04-26 04:09 -37.03111 174.97517 109 ft 7 kts 51°
2026-04-26 04:09 -37.03074 174.97565 109 ft 6 kts 41°
2026-04-26 04:09 -37.03040 174.97604 109 ft 5 kts 47°
2026-04-26 04:09 -37.03035 174.97649 109 ft 6 kts 145°
2026-04-26 04:10 -37.03039 174.97667 109 ft 3 kts 26°
2026-04-26 04:10 -37.03017 174.97697 109 ft 4 kts 56°
2026-04-26 04:10 -37.03006 174.97731 109 ft 0 kts 126°
2026-04-26 04:10 -37.03011 174.97731 109 ft 1 kts 229°
2026-04-26 04:11 -37.03013 174.97728 109 ft 0 kts 246°